Andover, NJ

6:08 PM EDT on March 31, 2015 (GMT -0400)
Andover | | Change Station
CLOSE
Current Station
Airport
Location: Andover,
Elevation: 581 ft
Nearby Weather Stations

Elev 581 ft 41.01 °N, 74.74 °W | Updated 14 minutes ago

Ice Pellets
Ice Pellets
33 °F
Feels Like 33 °F
N
0
Wind Variable Wind from North
Gusts mph

Today
High -- | Low -- °F
--% Chance of Precip.
Yesterday
High -- | Low -- °F
Precip. -- in
6:44 AM 7:22 PM
Waxing Gibbous, 89% visible
Pressure 29.78 in
Visibility -9999.0 miles
Clouds
Dew Point 32 °F
Humidity 96%
Rainfall 0.25 in
Snow Depth Not available.
UV Not available.
Pollen 6.40 out of 12
Air Quality Not available.
Flu Activity Not available.
METAR K12N 312154Z AUTO 00000KT 01/00 A2975 RMK AO1 SLP084 P0009 T00060000

More Conditions Fewer Conditions

Pressure 29.78 in
Visibility -9999.0 miles
Clouds
Dew Point 32 °F
Humidity 96%
Rainfall 0.25 in
Snow Depth Not available.
UV Not available.
Pollen 6.40 out of 12
Air Quality Not available.
Flu Activity Not available.
METAR K12N 312154Z AUTO 00000KT 01/00 A2975 RMK AO1 SLP084 P0009 T00060000

More Conditions Fewer Conditions

Nowcast | as of 4:11 PM EDT on March 31, 2015

Snow will continue across Carbon and Monroe counties in Pennsylvania and Sussex County in New Jersey through the evening hours. Additionally, there could be snow at the higher elevations of Lehigh, Northampton, Warren and Morris counties. Reduced visibilities are likely and slick spots are possible on untreated Road surfaces and sidewalks. Light snow accumulations are possible especially in Carbon and Monroe counties. Please allow extra time to reach your destination and extra distance between yourself and other vehicles.

×

10-Day Weather Forecast

Almanac

Astronomy

Mar. 31, 2015 Rise Set
Actual Time
Civil Twilight
Nautical Twilight
Astronomical Twilight
Moon
Length of Visible Light
Length of Day
Tomorrow will be .
, % of the Moon is Illuminated

Today's Extremes

State Highs State Lows

Community

WunderPhotos

Upload Photos

1,809,849 photos uploaded!

WunderBlogs® & News

Nearby

Air Quality

  Air Quality AQ Index Pollutant
Not available.

Snow Depth

Station Depth Elevation

Earthquake Activity

City Distance Mag. Time & Date
Minimum magnitude displayed is 2.5.

Coastal Water Temperatures

Place Temperature

Stations

Nearby Weather Stations

Station Location Temp. Windchill Dew Point Humidity Wind Precip. Elev Updated Type